Time;durP1;ratioP1;P1;durP2;ratioP2;P2;SDS_P1;SDS_P2;PMS_P1;PMS_P2;Temp;Humidity;BMP_temperature;BMP_pressure;BME280_temperature;BME280_humidity;BME280_pressure;Samples;Min_cycle;Max_cycle;Signal;HPM_P1;HPM_P2
2022/03/26 00:00:12;;;;;;;17.29;15.56;;;;;;;2.34;46.52;101233.80;478798;110;922570;-68
2022/03/26 00:01:15;;;;;;;17.07;15.21;;;;;;;2.35;46.57;101248.11;478149;110;922567;-69
2022/03/26 00:02:18;;;;;;;17.58;15.93;;;;;;;2.33;46.64;101244.70;479879;110;922349;-67
2022/03/26 00:03:21;;;;;;;17.12;15.48;;;;;;;2.31;46.62;101242.19;478548;109;922505;-68
2022/03/26 00:04:24;;;;;;;20.92;17.51;;;;;;;2.30;46.69;101236.94;477590;110;922640;-68
2022/03/26 00:05:27;;;;;;;18.19;16.33;;;;;;;2.29;46.72;101237.92;479425;110;922545;-69
2022/03/26 00:06:32;;;;;;;18.40;16.29;;;;;;;2.28;46.74;101239.77;475079;110;922642;-68
2022/03/26 00:07:35;;;;;;;18.70;16.73;;;;;;;2.27;46.76;101239.91;472692;110;922685;-68
2022/03/26 00:08:37;;;;;;;20.61;15.82;;;;;;;2.26;46.82;101241.73;472544;110;930552;-68
2022/03/26 00:09:40;;;;;;;18.21;16.18;;;;;;;2.25;46.85;101241.91;480079;109;922486;-69
2022/03/26 00:10:44;;;;;;;21.89;17.11;;;;;;;2.24;46.89;101238.37;475598;110;922766;-68
2022/03/26 00:11:47;;;;;;;18.69;16.11;;;;;;;2.23;46.90;101241.20;477287;110;922868;-69
2022/03/26 00:12:52;;;;;;;18.98;17.04;;;;;;;2.22;46.95;101234.11;476486;109;922954;-70
2022/03/26 00:13:55;;;;;;;21.42;16.97;;;;;;;2.21;46.94;101233.26;474931;109;922481;-69
2022/03/26 00:14:58;;;;;;;23.10;16.51;;;;;;;2.20;46.96;101233.42;479945;110;922390;-69
2022/03/26 00:16:02;;;;;;;22.75;16.86;;;;;;;2.18;46.97;101230.02;477321;110;922789;-69
2022/03/26 00:17:05;;;;;;;19.51;16.66;;;;;;;2.16;47.04;101229.30;470434;110;922670;-70
2022/03/26 00:18:08;;;;;;;19.24;16.79;;;;;;;2.14;47.09;101226.78;478940;110;923146;-69
2022/03/26 00:19:11;;;;;;;21.06;15.98;;;;;;;2.10;47.15;101231.59;478726;110;922499;-69
2022/03/26 00:20:15;;;;;;;20.95;16.16;;;;;;;2.10;47.20;101231.59;473651;111;922554;-69
2022/03/26 00:21:18;;;;;;;21.81;17.28;;;;;;;2.08;47.22;101228.21;474605;110;922488;-69
2022/03/26 00:22:21;;;;;;;16.72;15.08;;;;;;;2.06;47.26;101226.64;477388;109;922700;-69
2022/03/26 00:23:24;;;;;;;19.98;16.21;;;;;;;2.04;47.27;101221.40;475422;109;923118;-67
2022/03/26 00:24:28;;;;;;;17.94;16.23;;;;;;;2.03;47.34;101225.11;474547;109;922639;-68
2022/03/26 00:25:31;;;;;;;18.05;16.15;;;;;;;2.01;47.40;101223.54;473741;110;922594;-69
2022/03/26 00:26:34;;;;;;;19.81;16.26;;;;;;;2.00;47.50;101219.15;476437;110;922498;-69
2022/03/26 00:27:37;;;;;;;20.16;17.79;;;;;;;1.98;47.52;101224.70;477280;109;922560;-69
2022/03/26 00:28:40;;;;;;;23.87;17.41;;;;;;;1.97;47.62;101225.68;474820;110;922578;-68
2022/03/26 00:29:44;;;;;;;21.90;17.37;;;;;;;1.97;47.64;101227.52;467891;110;922929;-68
2022/03/26 00:30:47;;;;;;;18.67;16.86;;;;;;;1.95;47.69;101224.96;470409;110;930650;-69
2022/03/26 00:31:51;;;;;;;20.48;16.94;;;;;;;1.94;47.79;101219.72;478933;110;930355;-68
2022/03/26 00:32:54;;;;;;;20.59;16.67;;;;;;;1.94;47.78;101222.41;479682;110;922645;-69
2022/03/26 00:33:57;;;;;;;18.99;16.70;;;;;;;1.94;47.88;101220.57;477549;110;923159;-68
2022/03/26 00:35:00;;;;;;;25.19;17.56;;;;;;;1.94;47.88;101227.78;478352;110;930611;-70
2022/03/26 00:36:04;;;;;;;23.04;17.51;;;;;;;1.94;47.95;101215.19;477402;110;922523;-69
2022/03/26 00:37:07;;;;;;;22.95;17.04;;;;;;;1.95;47.96;101216.89;475368;109;931171;-70
2022/03/26 00:38:10;;;;;;;23.99;16.14;;;;;;;1.95;47.97;101219.58;479916;109;922620;-69
2022/03/26 00:39:13;;;;;;;19.82;17.52;;;;;;;1.96;47.98;101223.13;476999;109;922715;-69
2022/03/26 00:40:17;;;;;;;19.18;16.48;;;;;;;1.95;48.01;101218.73;472787;109;922463;-69
2022/03/26 00:41:20;;;;;;;19.34;17.09;;;;;;;1.94;48.06;101215.19;475734;109;922595;-69
2022/03/26 00:42:23;;;;;;;24.58;18.51;;;;;;;1.94;48.05;101223.26;480320;109;922377;-68
2022/03/26 00:43:26;;;;;;;22.49;18.86;;;;;;;1.94;48.03;101208.97;479019;110;922563;-70
2022/03/26 00:44:28;;;;;;;24.93;17.57;;;;;;;1.93;48.09;101212.67;476358;109;922545;-68
2022/03/26 00:45:31;;;;;;;25.26;19.73;;;;;;;1.93;48.17;101218.05;477769;110;922687;-69
2022/03/26 00:46:34;;;;;;;23.33;17.78;;;;;;;1.92;48.20;101208.28;478689;109;922905;-69
2022/03/26 00:47:37;;;;;;;25.43;19.48;;;;;;;1.92;48.23;101214.51;478067;110;922467;-69
2022/03/26 00:48:40;;;;;;;22.25;19.47;;;;;;;1.92;48.20;101216.34;477582;109;922410;-69
2022/03/26 00:49:43;;;;;;;25.66;19.18;;;;;;;1.92;48.23;101221.72;473558;110;922469;-69
2022/03/26 00:50:46;;;;;;;21.48;18.80;;;;;;;1.91;48.27;101211.95;482615;109;922585;-70
2022/03/26 00:51:49;;;;;;;24.68;20.08;;;;;;;1.90;48.29;101207.56;481110;109;922913;-67
2022/03/26 00:52:52;;;;;;;20.91;18.83;;;;;;;1.89;48.32;101213.92;474972;109;922830;-68
2022/03/26 00:53:55;;;;;;;26.29;20.70;;;;;;;1.88;48.40;101207.70;476697;109;922536;-67
2022/03/26 00:54:58;;;;;;;24.88;18.67;;;;;;;1.88;48.43;101209.53;477004;110;922944;-68
2022/03/26 00:56:01;;;;;;;24.90;19.92;;;;;;;1.87;48.44;101211.41;480099;109;922538;-70
2022/03/26 00:57:04;;;;;;;21.70;19.31;;;;;;;1.86;48.47;101207.02;480534;109;922340;-70
2022/03/26 00:58:07;;;;;;;22.82;18.88;;;;;;;1.86;48.47;101203.47;476546;109;922378;-69
2022/03/26 00:59:10;;;;;;;25.49;20.09;;;;;;;1.86;48.48;101206.16;480667;109;922549;-69
2022/03/26 01:00:14;;;;;;;28.15;19.99;;;;;;;1.86;48.48;101214.23;480029;110;922464;-67
2022/03/26 01:01:17;;;;;;;20.61;18.41;;;;;;;1.85;48.55;101202.63;474240;110;922561;-69
2022/03/26 01:02:21;;;;;;;22.28;17.88;;;;;;;1.85;48.64;101204.45;475283;109;922611;-70
2022/03/26 01:03:23;;;;;;;19.58;17.66;;;;;;;1.86;48.66;101203.47;478757;110;923366;-67
2022/03/26 01:04:26;;;;;;;25.22;18.14;;;;;;;1.87;48.67;101203.34;476453;110;922613;-69
2022/03/26 01:05:29;;;;;;;19.89;17.31;;;;;;;1.88;48.66;101202.32;474149;110;922762;-69
2022/03/26 01:06:32;;;;;;;29.54;16.75;;;;;;;1.89;48.58;101203.17;473731;110;923056;-68
2022/03/26 01:07:35;;;;;;;20.11;17.58;;;;;;;1.88;48.59;101202.32;478232;109;922524;-68
2022/03/26 01:08:38;;;;;;;19.10;16.99;;;;;;;1.88;48.61;101202.32;471462;110;922914;-69
2022/03/26 01:09:41;;;;;;;20.06;17.19;;;;;;;1.89;48.59;101205.86;475100;109;922524;-69
2022/03/26 01:10:45;;;;;;;25.27;17.73;;;;;;;1.89;48.52;101205.86;472373;110;923296;-68
2022/03/26 01:11:48;;;;;;;18.90;16.99;;;;;;;1.89;48.44;101206.71;480422;109;930613;-69
2022/03/26 01:12:50;;;;;;;21.57;18.11;;;;;;;1.88;48.42;101202.32;479361;109;922604;-71
2022/03/26 01:13:56;;;;;;;21.17;17.68;;;;;;;1.85;48.48;101199.94;480147;110;922708;-69
2022/03/26 01:14:58;;;;;;;25.36;18.59;;;;;;;1.84;48.46;101205.45;478406;109;922529;-69
2022/03/26 01:16:02;;;;;;;19.36;16.25;;;;;;;1.84;48.46;101208.13;476480;109;922952;-70
2022/03/26 01:17:05;;;;;;;20.99;17.34;;;;;;;1.81;48.44;101206.59;477429;109;923089;-70
2022/03/26 01:18:09;;;;;;;18.78;16.57;;;;;;;1.79;48.36;101203.19;475045;109;922667;-70
2022/03/26 01:19:12;;;;;;;20.17;16.67;;;;;;;1.77;48.45;101207.85;474989;109;922596;-68
2022/03/26 01:20:19;;;;;;;22.12;18.18;;;;;;;1.75;48.40;101207.16;476306;109;922826;-68
2022/03/26 01:21:23;;;;;;;20.93;17.53;;;;;;;1.72;48.48;101202.05;478946;110;922665;-69
2022/03/26 01:22:26;;;;;;;19.67;16.82;;;;;;;1.70;48.56;101205.89;477586;109;922693;-69
2022/03/26 01:23:29;;;;;;;17.96;16.27;;;;;;;1.68;48.56;101203.34;475072;109;922477;-68
2022/03/26 01:24:33;;;;;;;19.51;16.83;;;;;;;1.67;48.60;101207.86;478487;110;922540;-69
2022/03/26 01:25:36;;;;;;;20.77;17.32;;;;;;;1.65;48.68;101207.14;477889;109;922604;-69
2022/03/26 01:26:40;;;;;;;18.39;16.44;;;;;;;1.65;48.69;101201.77;477024;109;922634;-69
2022/03/26 01:27:43;;;;;;;21.07;17.15;;;;;;;1.65;48.71;101206.33;479096;110;922565;-68
2022/03/26 01:28:46;;;;;;;20.14;17.14;;;;;;;1.63;48.69;101203.77;480404;109;922650;-68
2022/03/26 01:29:49;;;;;;;18.36;16.53;;;;;;;1.61;48.70;101203.05;478863;110;922492;-69
2022/03/26 01:30:53;;;;;;;21.64;15.87;;;;;;;1.60;48.77;101205.88;474509;109;922780;-69
2022/03/26 01:31:56;;;;;;;18.25;16.41;;;;;;;1.60;48.85;101203.19;474707;109;922435;-69
2022/03/26 01:32:59;;;;;;;17.78;16.01;;;;;;;1.59;48.91;101207.74;473224;110;922882;-68
2022/03/26 01:34:02;;;;;;;20.29;16.97;;;;;;;1.57;49.01;101204.34;477681;109;922599;-69
2022/03/26 01:35:05;;;;;;;18.48;16.55;;;;;;;1.55;49.01;101203.62;472883;110;922693;-69
2022/03/26 01:36:09;;;;;;;23.07;17.01;;;;;;;1.54;49.08;101201.09;476869;110;922557;-69
2022/03/26 01:37:12;;;;;;;22.11;18.18;;;;;;;1.51;49.13;101209.42;475280;110;922846;-67
2022/03/26 01:38:15;;;;;;;19.30;15.58;;;;;;;1.49;49.17;101206.87;479144;110;922524;-68
2022/03/26 01:39:20;;;;;;;18.01;16.17;;;;;;;1.48;49.30;101210.56;476857;110;922659;-69
2022/03/26 01:40:23;;;;;;;20.02;16.48;;;;;;;1.47;49.37;101210.70;471731;110;922585;-67
2022/03/26 01:41:26;;;;;;;17.66;15.80;;;;;;;1.45;49.40;101204.61;474670;110;922854;-70
2022/03/26 01:42:29;;;;;;;18.91;16.59;;;;;;;1.45;49.51;101207.30;475026;110;922950;-69
2022/03/26 01:43:32;;;;;;;17.89;15.80;;;;;;;1.44;49.49;101205.59;475346;109;922500;-67
2022/03/26 01:44:36;;;;;;;17.90;16.16;;;;;;;1.44;49.54;101202.91;476623;109;923028;-68
2022/03/26 01:45:40;;;;;;;17.68;15.86;;;;;;;1.43;49.54;101203.92;475601;109;923014;-68
2022/03/26 01:46:53;;;;;;;18.56;16.62;;;;;;;1.42;49.53;101199.53;482244;109;922699;-68
2022/03/26 01:47:57;;;;;;;18.51;16.23;;;;;;;1.41;49.57;101200.52;480187;110;922473;-68
2022/03/26 01:49:00;;;;;;;18.06;16.21;;;;;;;1.41;49.54;101203.20;480317;110;922600;-69
2022/03/26 01:50:04;;;;;;;19.03;16.98;;;;;;;1.42;49.50;101208.44;477171;110;922616;-68
2022/03/26 01:51:16;;;;;;;20.67;16.14;;;;;;;1.42;49.49;101203.07;478909;109;922547;-69
2022/03/26 01:52:19;;;;;;;19.94;15.98;;;;;;;1.41;49.46;101197.83;478622;110;930607;-69
2022/03/26 01:53:22;;;;;;;18.61;16.68;;;;;;;1.41;49.39;101203.20;478425;110;922958;-68
2022/03/26 01:54:26;;;;;;;16.94;15.36;;;;;;;1.38;49.33;101201.62;480262;109;922591;-69
2022/03/26 01:55:30;;;;;;;18.49;16.60;;;;;;;1.37;49.25;101199.11;476636;110;922836;-69
2022/03/26 01:56:34;;;;;;;20.04;15.74;;;;;;;1.36;49.24;101200.09;478071;109;922608;-70
2022/03/26 01:57:38;;;;;;;19.55;16.22;;;;;;;1.34;49.25;101199.37;478825;110;922805;-70
2022/03/26 01:58:42;;;;;;;18.52;16.55;;;;;;;1.35;49.26;101209.13;479605;109;922805;-68
2022/03/26 01:59:45;;;;;;;18.24;15.89;;;;;;;1.34;49.23;101208.28;478195;109;930589;-69
2022/03/26 02:00:48;;;;;;;20.76;17.01;;;;;;;1.34;49.23;101207.42;470544;111;930585;-69
2022/03/26 02:01:52;;;;;;;21.47;16.47;;;;;;;1.33;49.24;101201.20;470955;111;923170;-69
2022/03/26 02:02:58;;;;;;;21.58;16.53;;;;;;;1.35;49.20;101209.13;469371;110;923913;-69
2022/03/26 02:04:02;;;;;;;20.44;16.06;;;;;;;1.34;49.25;101205.59;474608;110;922570;-68
2022/03/26 02:05:05;;;;;;;17.97;15.58;;;;;;;1.33;49.16;101200.35;473189;110;922725;-70
2022/03/26 02:06:08;;;;;;;21.23;16.64;;;;;;;1.29;49.15;101198.94;471957;110;930938;-67
2022/03/26 02:07:11;;;;;;;18.76;16.54;;;;;;;1.27;49.16;101193.70;470291;110;930529;-69
2022/03/26 02:08:14;;;;;;;17.77;15.76;;;;;;;1.26;49.24;101200.09;472438;109;922627;-70
2022/03/26 02:09:17;;;;;;;20.49;15.96;;;;;;;1.25;49.15;101199.23;476563;110;922547;-69
2022/03/26 02:10:21;;;;;;;19.51;16.05;;;;;;;1.24;49.23;101200.22;477033;110;922554;-68
2022/03/26 02:11:24;;;;;;;17.82;15.62;;;;;;;1.23;49.26;101197.66;478547;110;922545;-69
2022/03/26 02:12:29;;;;;;;20.07;15.84;;;;;;;1.23;49.30;101206.58;475261;110;922974;-71
2022/03/26 02:13:54;;;;;;;17.45;15.71;;;;;;;1.24;49.31;101202.91;478052;110;922645;-69
2022/03/26 02:14:58;;;;;;;17.43;15.68;;;;;;;1.23;49.24;101201.20;479144;109;923220;-70
2022/03/26 02:16:01;;;;;;;22.22;14.87;;;;;;;1.20;49.18;101201.50;478595;109;922648;-69
2022/03/26 02:17:04;;;;;;;19.24;15.05;;;;;;;1.17;49.20;101200.91;479315;110;923100;-69
2022/03/26 02:18:09;;;;;;;18.39;16.02;;;;;;;1.14;49.22;101202.05;477548;110;922536;-69
2022/03/26 02:19:12;;;;;;;17.50;15.82;;;;;;;1.13;49.27;101199.49;472921;110;922622;-68
2022/03/26 02:20:17;;;;;;;18.76;16.82;;;;;;;1.12;49.30;101198.64;471645;111;922839;-69
2022/03/26 02:21:21;;;;;;;17.32;15.66;;;;;;;1.11;49.43;101204.99;480057;109;922500;-69
2022/03/26 02:22:27;;;;;;;16.39;14.51;;;;;;;1.11;49.44;101196.94;476502;110;923168;-70
2022/03/26 02:23:29;;;;;;;16.98;15.11;;;;;;;1.11;49.45;101193.41;476320;111;922616;-69
2022/03/26 02:24:32;;;;;;;16.51;14.97;;;;;;;1.10;49.43;101197.09;476832;110;922561;-71
2022/03/26 02:25:35;;;;;;;16.89;14.67;;;;;;;1.09;49.45;101198.08;478768;109;922476;-68
2022/03/26 02:26:38;;;;;;;16.24;14.61;;;;;;;1.07;49.43;101197.36;475702;109;922525;-69
2022/03/26 02:27:41;;;;;;;17.56;15.23;;;;;;;1.05;49.44;101196.64;476109;110;922604;-71
2022/03/26 02:28:45;;;;;;;17.62;14.91;;;;;;;1.02;49.45;101196.93;477851;110;922522;-69
2022/03/26 02:29:50;;;;;;;15.82;14.28;;;;;;;0.99;49.45;101198.07;468123;109;922525;-69
2022/03/26 02:30:53;;;;;;;15.49;14.01;;;;;;;0.97;49.51;101207.23;475259;109;930230;-69
2022/03/26 02:31:56;;;;;;;18.62;15.77;;;;;;;0.94;49.56;101200.30;476251;110;922466;-68
2022/03/26 02:33:00;;;;;;;17.35;15.28;;;;;;;0.93;49.67;101201.30;478784;110;922520;-69
2022/03/26 02:34:04;;;;;;;16.42;14.56;;;;;;;0.93;49.62;101203.14;474122;109;922575;-69
2022/03/26 02:35:08;;;;;;;16.06;14.47;;;;;;;0.91;49.62;101203.27;478645;110;930567;-68
2022/03/26 02:36:11;;;;;;;15.75;14.24;;;;;;;0.87;49.55;101201.85;474898;109;922908;-68
2022/03/26 02:37:16;;;;;;;16.19;14.73;;;;;;;0.82;49.60;101201.42;474846;109;923131;-68
2022/03/26 02:38:19;;;;;;;18.60;14.44;;;;;;;0.79;49.62;101201.67;476825;110;923050;-69
2022/03/26 02:39:22;;;;;;;17.81;15.11;;;;;;;0.75;49.65;101192.20;477559;110;922602;-69
2022/03/26 02:40:25;;;;;;;17.78;15.16;;;;;;;0.71;49.78;101196.16;471801;110;923022;-70
2022/03/26 02:41:28;;;;;;;21.78;14.76;;;;;;;0.70;49.86;101197.14;476152;109;922520;-70
2022/03/26 02:42:31;;;;;;;18.59;14.61;;;;;;;0.68;49.89;101197.27;477345;109;922643;-69
2022/03/26 02:43:35;;;;;;;16.61;14.86;;;;;;;0.68;50.02;101201.77;475981;110;923111;-69
2022/03/26 02:44:38;;;;;;;19.68;15.25;;;;;;;0.66;50.04;101193.03;479995;110;922514;-69
2022/03/26 02:45:45;;;;;;;17.79;16.06;;;;;;;0.65;50.14;101204.75;478630;110;923085;-68
2022/03/26 02:46:48;;;;;;;19.22;14.59;;;;;;;0.64;50.16;101197.67;479506;110;923037;-68
2022/03/26 02:47:51;;;;;;;18.23;14.44;;;;;;;0.63;50.23;101201.34;460969;114;922588;-66
2022/03/26 02:48:55;;;;;;;19.46;15.16;;;;;;;0.61;50.26;101200.61;458870;114;922567;-69
2022/03/26 02:49:58;;;;;;;18.43;15.42;;;;;;;0.59;50.26;101198.09;462647;113;922645;-70
2022/03/26 02:51:01;;;;;;;17.97;14.63;;;;;;;0.59;50.41;101197.23;477466;110;922948;-69
2022/03/26 02:52:04;;;;;;;17.96;15.23;;;;;;;0.59;50.48;101197.23;479843;110;922538;-69
2022/03/26 02:53:07;;;;;;;18.74;15.41;;;;;;;0.58;50.47;101198.22;472729;109;922575;-68
2022/03/26 02:54:18;;;;;;;17.25;15.45;;;;;;;0.55;50.50;101191.27;479006;110;923137;-67
2022/03/26 02:55:15;;;;;;;18.39;16.37;;;;;;;0.53;50.52;101189.73;476958;110;922548;-69
2022/03/26 02:56:21;;;;;;;21.79;16.02;;;;;;;0.50;50.70;101196.20;475382;110;922548;-69
2022/03/26 02:57:25;;;;;;;17.73;16.08;;;;;;;0.52;50.78;101190.70;478436;110;922517;-69
2022/03/26 02:58:29;;;;;;;17.81;15.19;;;;;;;0.52;50.79;101196.07;475600;110;930477;-70
2022/03/26 02:59:32;;;;;;;20.00;15.21;;;;;;;0.53;50.79;101189.73;479479;110;930518;-68
2022/03/26 03:00:39;;;;;;;17.09;15.24;;;;;;;0.53;50.78;101195.94;480669;110;922887;-69
2022/03/26 03:01:42;;;;;;;17.28;15.47;;;;;;;0.52;50.88;101196.07;474142;110;922886;-69
2022/03/26 03:02:45;;;;;;;23.21;14.51;;;;;;;0.52;50.85;101188.02;477775;110;922652;-70
2022/03/26 03:03:48;;;;;;;17.23;15.44;;;;;;;0.50;50.94;101179.28;475628;110;922910;-70
2022/03/26 03:04:51;;;;;;;19.49;15.89;;;;;;;0.50;51.00;101185.47;475915;110;922576;-69
2022/03/26 03:05:54;;;;;;;17.81;15.58;;;;;;;0.50;51.01;101181.96;479929;110;922541;-72
2022/03/26 03:06:57;;;;;;;19.13;15.56;;;;;;;0.48;51.01;101182.09;479760;109;922572;-70
2022/03/26 03:08:01;;;;;;;19.32;15.29;;;;;;;0.46;51.12;101180.51;474655;109;922597;-68
2022/03/26 03:09:05;;;;;;;19.81;15.94;;;;;;;0.46;51.13;101183.20;475137;110;922900;-69
2022/03/26 03:10:11;;;;;;;21.02;16.31;;;;;;;0.45;51.20;101182.34;475585;111;922898;-68
2022/03/26 03:11:14;;;;;;;19.82;16.01;;;;;;;0.45;51.25;101186.86;475967;109;922652;-70
2022/03/26 03:12:18;;;;;;;17.67;15.47;;;;;;;0.44;51.26;101193.23;479320;110;922988;-68
2022/03/26 03:13:22;;;;;;;18.44;15.95;;;;;;;0.43;51.27;101187.02;476555;109;922613;-70
2022/03/26 03:14:25;;;;;;;21.34;16.67;;;;;;;0.43;51.28;101191.52;480260;110;922831;-68
2022/03/26 03:15:28;;;;;;;18.37;16.01;;;;;;;0.43;51.39;101188.84;476346;110;922497;-68
2022/03/26 03:16:32;;;;;;;19.00;15.43;;;;;;;0.43;51.42;101189.69;475701;110;930522;-69
2022/03/26 03:17:37;;;;;;;20.79;16.60;;;;;;;0.43;51.41;101189.69;475161;110;922769;-67
2022/03/26 03:18:40;;;;;;;19.06;15.93;;;;;;;0.41;51.35;101194.33;475479;110;922927;-68
2022/03/26 03:19:44;;;;;;;18.15;15.40;;;;;;;0.39;51.45;101196.29;480032;110;923342;-69
2022/03/26 03:20:47;;;;;;;17.38;15.36;;;;;;;0.38;51.50;101190.11;479653;110;923114;-69
2022/03/26 03:21:50;;;;;;;19.52;15.99;;;;;;;0.37;51.46;101188.40;476665;110;922540;-69
2022/03/26 03:22:53;;;;;;;18.51;16.61;;;;;;;0.37;51.55;101190.23;475806;110;922567;-69
2022/03/26 03:23:56;;;;;;;19.13;16.83;;;;;;;0.38;51.60;101194.61;476594;109;922529;-71
2022/03/26 03:24:59;;;;;;;17.56;15.69;;;;;;;0.38;51.72;101192.78;479167;109;922844;-68
2022/03/26 03:26:02;;;;;;;19.58;15.65;;;;;;;0.40;51.75;101200.67;479551;110;922511;-69
2022/03/26 03:27:05;;;;;;;17.19;15.49;;;;;;;0.41;51.79;101187.14;469794;112;922487;-70
2022/03/26 03:28:08;;;;;;;18.82;15.18;;;;;;;0.43;51.77;101195.06;472898;110;922556;-67
2022/03/26 03:29:11;;;;;;;17.11;15.41;;;;;;;0.46;51.76;101191.24;475105;110;922518;-69
2022/03/26 03:30:14;;;;;;;17.71;15.44;;;;;;;0.47;51.75;101195.63;476231;110;922523;-69
2022/03/26 03:31:17;;;;;;;17.40;15.66;;;;;;;0.47;51.69;101191.12;472991;110;930560;-68
2022/03/26 03:32:20;;;;;;;19.24;16.71;;;;;;;0.47;51.71;101195.63;479416;109;923100;-69
2022/03/26 03:33:24;;;;;;;17.56;15.39;;;;;;;0.48;51.71;101186.60;474581;111;923146;-68
2022/03/26 03:34:28;;;;;;;19.29;15.04;;;;;;;0.51;51.77;101194.36;480248;110;923148;-70
2022/03/26 03:35:31;;;;;;;18.18;14.90;;;;;;;0.51;51.71;101183.63;479859;109;922582;-68
2022/03/26 03:36:34;;;;;;;17.32;15.50;;;;;;;0.51;51.65;101176.44;474197;110;924081;-67
2022/03/26 03:37:38;;;;;;;18.90;16.49;;;;;;;0.52;51.63;101182.66;477572;110;922490;-69
2022/03/26 03:38:41;;;;;;;16.68;15.01;;;;;;;0.53;51.59;101189.73;471604;110;922560;-70
2022/03/26 03:39:44;;;;;;;19.23;16.01;;;;;;;0.54;51.67;101178.02;476810;109;922390;-68
2022/03/26 03:40:47;;;;;;;17.06;15.03;;;;;;;0.54;51.61;101183.38;475273;109;922862;-68
2022/03/26 03:41:50;;;;;;;17.14;15.03;;;;;;;0.56;51.63;101178.70;475952;111;930518;-69
2022/03/26 03:42:54;;;;;;;17.57;15.83;;;;;;;0.58;51.63;101185.65;476224;110;922533;-68
2022/03/26 03:43:57;;;;;;;17.89;15.19;;;;;;;0.59;51.63;101187.36;474219;110;922871;-68
2022/03/26 03:45:01;;;;;;;16.80;15.08;;;;;;;0.62;51.54;101180.84;475628;110;922485;-68
2022/03/26 03:46:04;;;;;;;17.62;15.56;;;;;;;0.63;51.44;101180.72;474627;110;922870;-68
2022/03/26 03:47:07;;;;;;;24.01;16.27;;;;;;;0.63;51.34;101180.72;475718;110;922523;-69
2022/03/26 03:48:11;;;;;;;19.10;15.82;;;;;;;0.63;51.19;101179.87;477251;110;922507;-68
2022/03/26 03:49:13;;;;;;;17.14;15.36;;;;;;;0.63;51.21;101177.19;480950;109;930560;-70
2022/03/26 03:50:17;;;;;;;16.38;14.71;;;;;;;0.63;51.13;101177.19;466697;112;922926;-68
2022/03/26 03:51:20;;;;;;;19.25;15.67;;;;;;;0.60;51.15;101174.80;457899;114;923020;-67
2022/03/26 03:52:23;;;;;;;17.21;15.31;;;;;;;0.61;51.21;101181.83;454231;114;922735;-67
2022/03/26 03:53:26;;;;;;;17.36;15.38;;;;;;;0.61;51.29;101177.31;453017;115;922644;-68
2022/03/26 03:54:29;;;;;;;16.79;14.99;;;;;;;0.62;51.28;101173.66;463561;112;922525;-69
2022/03/26 03:55:33;;;;;;;17.00;15.31;;;;;;;0.63;51.23;101180.72;465875;113;922788;-68
2022/03/26 03:56:36;;;;;;;20.64;16.00;;;;;;;0.62;51.21;101179.02;477066;111;922814;-67
2022/03/26 03:57:43;;;;;;;20.25;16.07;;;;;;;0.61;51.19;101180.00;471696;110;922532;-68
2022/03/26 03:58:46;;;;;;;17.87;16.04;;;;;;;0.61;51.19;101182.69;479982;110;923162;-68
2022/03/26 03:59:49;;;;;;;19.01;16.64;;;;;;;0.60;51.23;101172.11;479259;109;922609;-68
2022/03/26 04:00:52;;;;;;;19.94;16.11;;;;;;;0.60;51.24;101174.80;479703;109;922530;-68
2022/03/26 04:01:55;;;;;;;21.69;17.27;;;;;;;0.60;51.26;101180.16;477756;110;922500;-67
2022/03/26 04:03:00;;;;;;;19.05;16.74;;;;;;;0.61;51.24;101176.46;474623;109;922539;-70
2022/03/26 04:04:03;;;;;;;25.21;17.66;;;;;;;0.60;51.26;101185.52;476904;110;922978;-70
2022/03/26 04:05:09;;;;;;;27.30;17.87;;;;;;;0.60;51.29;101186.37;477727;110;922888;-66
2022/03/26 04:06:14;;;;;;;22.03;17.47;;;;;;;0.60;51.29;101181.01;478614;110;922618;-72
2022/03/26 04:07:17;;;;;;;21.95;17.79;;;;;;;0.61;51.41;101187.20;478464;110;922875;-69
2022/03/26 04:08:21;;;;;;;20.70;17.32;;;;;;;0.63;51.37;101177.19;479508;110;922534;-69
2022/03/26 04:09:24;;;;;;;23.42;17.81;;;;;;;0.64;51.37;101174.38;474457;109;922601;-69
2022/03/26 04:10:27;;;;;;;24.43;18.08;;;;;;;0.66;51.36;101180.44;478723;109;922491;-67
2022/03/26 04:11:32;;;;;;;25.99;18.73;;;;;;;0.68;51.30;101174.94;479792;110;923291;-69
2022/03/26 04:12:39;;;;;;;28.48;19.19;;;;;;;0.70;51.29;101181.03;475467;110;923020;-68
2022/03/26 04:13:42;;;;;;;26.41;18.24;;;;;;;0.72;51.34;101179.04;473083;110;922542;-69
2022/03/26 04:14:45;;;;;;;22.58;17.99;;;;;;;0.75;51.34;101179.63;472245;110;922853;-68
2022/03/26 04:15:48;;;;;;;26.99;19.67;;;;;;;0.77;51.31;101169.59;472567;110;922470;-70
2022/03/26 04:16:51;;;;;;;21.34;18.41;;;;;;;0.82;51.31;101180.80;475857;111;922849;-68
2022/03/26 04:17:54;;;;;;;22.41;17.99;;;;;;;0.86;51.24;101177.82;478535;110;922570;-68
2022/03/26 04:18:58;;;;;;;19.22;16.94;;;;;;;0.88;51.15;101175.86;476362;110;922525;-67
2022/03/26 04:20:02;;;;;;;20.62;17.16;;;;;;;0.90;51.14;101180.09;475008;110;930594;-69
2022/03/26 04:21:06;;;;;;;22.99;17.97;;;;;;;0.93;51.10;101179.83;473249;110;923047;-69
2022/03/26 04:22:08;;;;;;;23.26;18.22;;;;;;;0.94;51.02;101176.13;473655;109;930660;-70
2022/03/26 04:23:12;;;;;;;21.94;18.74;;;;;;;0.96;51.00;101179.53;478593;110;922667;-68
2022/03/26 04:24:15;;;;;;;25.63;18.67;;;;;;;0.97;50.95;101178.55;478079;109;922686;-68
2022/03/26 04:25:18;;;;;;;27.35;18.57;;;;;;;0.99;50.94;101175.73;477631;109;922594;-69
2022/03/26 04:26:21;;;;;;;21.15;17.87;;;;;;;1.00;50.94;101175.58;478684;110;923073;-68
2022/03/26 04:27:24;;;;;;;26.04;17.95;;;;;;;1.01;50.91;101177.28;455327;112;923129;-67
2022/03/26 04:28:27;;;;;;;23.66;17.90;;;;;;;1.03;50.90;101172.63;458616;113;922945;-68
2022/03/26 04:29:30;;;;;;;22.93;17.42;;;;;;;1.04;50.85;101174.34;466436;112;922525;-69
2022/03/26 04:30:33;;;;;;;26.62;18.32;;;;;;;1.06;50.83;101172.34;475938;110;922945;-68
2022/03/26 04:31:36;;;;;;;23.76;18.84;;;;;;;1.06;50.77;101171.48;477910;109;922710;-68
2022/03/26 04:32:39;;;;;;;27.81;18.94;;;;;;;1.05;50.61;101170.64;479028;110;922952;-68
2022/03/26 04:33:42;;;;;;;21.51;18.52;;;;;;;1.06;50.74;101166.97;478779;110;922948;-67
2022/03/26 04:34:45;;;;;;;22.52;18.70;;;;;;;1.08;50.68;101172.20;479451;110;922857;-70
2022/03/26 04:35:48;;;;;;;24.11;18.91;;;;;;;1.08;50.67;101170.38;477990;109;930581;-70
2022/03/26 04:36:51;;;;;;;23.18;18.80;;;;;;;1.08;50.62;101170.38;477924;109;922441;-69
2022/03/26 04:37:56;;;;;;;21.92;18.23;;;;;;;1.08;50.64;101165.00;478076;110;922538;-68
2022/03/26 04:39:00;;;;;;;23.17;18.68;;;;;;;1.10;50.64;101168.38;473046;109;922464;-68
2022/03/26 04:40:04;;;;;;;24.95;18.64;;;;;;;1.12;50.65;101163.73;475841;109;931358;-68
2022/03/26 04:41:08;;;;;;;26.38;19.20;;;;;;;1.14;50.68;101168.97;474243;109;922871;-69
2022/03/26 04:42:12;;;;;;;22.78;19.45;;;;;;;1.15;50.66;101167.98;480108;110;922496;-69
2022/03/26 04:43:15;;;;;;;25.96;19.32;;;;;;;1.15;50.68;101171.52;478610;109;922631;-69
2022/03/26 04:44:18;;;;;;;26.51;18.49;;;;;;;1.18;50.69;101176.60;473269;109;930731;-68
2022/03/26 04:45:23;;;;;;;23.66;19.21;;;;;;;1.20;50.72;101171.95;475427;110;923044;-68
2022/03/26 04:46:26;;;;;;;21.79;18.22;;;;;;;1.22;50.71;101172.64;478911;110;922643;-68
2022/03/26 04:47:29;;;;;;;22.77;19.01;;;;;;;1.26;50.77;101173.23;482624;109;930535;-68
2022/03/26 04:48:32;;;;;;;22.00;19.15;;;;;;;1.30;50.71;101176.47;482687;109;922985;-68